createdAt,value
2022-09-01T00:00:02.660Z,18.80
2022-09-01T00:02:34.810Z,18.73
2022-09-01T00:05:04.744Z,18.76
2022-09-01T00:07:34.712Z,18.71
2022-09-01T00:10:08.484Z,18.61
2022-09-01T00:12:37.655Z,18.49
2022-09-01T00:15:08.739Z,18.41
2022-09-01T00:17:37.310Z,18.28
2022-09-01T00:20:06.316Z,18.17
2022-09-01T00:22:34.748Z,18.17
2022-09-01T00:25:06.017Z,18.10
2022-09-01T00:27:34.255Z,18.08
2022-09-01T00:30:02.932Z,18.04
2022-09-01T00:32:31.366Z,17.96
2022-09-01T00:34:59.788Z,17.92
2022-09-01T00:37:28.102Z,17.88
2022-09-01T00:39:56.459Z,17.80
2022-09-01T00:42:26.404Z,17.70
2022-09-01T00:44:54.664Z,17.72
2022-09-01T00:47:22.906Z,17.72
2022-09-01T00:49:52.682Z,17.58
2022-09-01T00:52:24.175Z,17.58
2022-09-01T00:54:55.850Z,17.56
2022-09-01T00:57:26.500Z,17.54
2022-09-01T01:00:00.421Z,17.54
2022-09-01T01:02:29.026Z,17.50
2022-09-01T01:05:00.739Z,17.55
2022-09-01T01:07:30.279Z,17.50
2022-09-01T01:09:58.735Z,17.46
2022-09-01T01:12:30.807Z,17.39
2022-09-01T01:14:59.117Z,17.33
2022-09-01T01:17:27.770Z,17.35
2022-09-01T01:20:14.816Z,17.34
2022-09-01T01:23:06.463Z,17.22
2022-09-01T01:25:42.994Z,17.21
2022-09-01T01:28:15.522Z,17.21
2022-09-01T01:30:51.134Z,17.22
2022-09-01T01:33:20.818Z,17.24
2022-09-01T01:35:50.694Z,17.26
2022-09-01T01:38:20.899Z,17.32
2022-09-01T01:40:56.000Z,17.33
2022-09-01T01:43:27.628Z,17.35
2022-09-01T01:45:59.295Z,17.36
2022-09-01T01:48:34.783Z,17.35
2022-09-01T01:51:04.602Z,17.32
2022-09-01T01:53:34.474Z,17.34
2022-09-01T01:56:06.317Z,17.31
2022-09-01T01:58:37.117Z,17.25
2022-09-01T02:01:11.930Z,17.34
2022-09-01T02:03:40.879Z,17.31
2022-09-01T02:06:11.934Z,17.31
2022-09-01T02:08:42.083Z,17.28
2022-09-01T02:11:13.299Z,17.30
2022-09-01T02:13:41.589Z,17.32
2022-09-01T02:16:12.908Z,17.35
2022-09-01T02:18:44.421Z,17.31
2022-09-01T02:21:18.558Z,17.32
2022-09-01T02:23:48.802Z,17.34
2022-09-01T02:26:19.130Z,17.34
2022-09-01T02:28:54.828Z,17.33
2022-09-01T02:31:29.006Z,17.31
2022-09-01T02:34:01.217Z,17.22
2022-09-01T02:36:32.923Z,17.15
2022-09-01T02:39:02.309Z,17.10
2022-09-01T02:41:34.618Z,17.16
2022-09-01T02:44:05.857Z,17.10
2022-09-01T02:46:34.647Z,17.06
2022-09-01T02:49:04.581Z,17.05
2022-09-01T02:51:34.623Z,16.98
2022-09-01T02:54:03.060Z,16.93
2022-09-01T02:56:32.797Z,16.85
2022-09-01T02:59:03.206Z,16.82
2022-09-01T03:01:33.316Z,16.80
2022-09-01T03:04:05.721Z,16.78
2022-09-01T03:06:36.537Z,16.72
2022-09-01T03:09:08.582Z,16.70
2022-09-01T03:11:44.563Z,16.74
2022-09-01T03:14:13.377Z,16.67
2022-09-01T03:16:42.251Z,16.67
2022-09-01T03:19:12.021Z,16.70
2022-09-01T03:21:44.643Z,16.66
2022-09-01T03:24:17.876Z,16.67
2022-09-01T03:26:50.321Z,16.69
2022-09-01T03:29:20.737Z,16.65
2022-09-01T03:31:48.980Z,16.58
2022-09-01T03:34:20.799Z,16.60
2022-09-01T03:36:51.220Z,16.51
2022-09-01T03:39:27.890Z,16.47
2022-09-01T03:41:58.948Z,16.41
2022-09-01T03:44:28.544Z,16.42
2022-09-01T03:46:58.490Z,16.35
2022-09-01T03:49:28.783Z,16.31
2022-09-01T03:51:58.762Z,16.27
2022-09-01T03:54:30.618Z,16.27
2022-09-01T03:57:00.648Z,16.21
2022-09-01T03:59:30.593Z,16.20
2022-09-01T04:02:00.429Z,16.14
2022-09-01T04:04:31.528Z,16.06
2022-09-01T04:07:01.085Z,16.08
2022-09-01T04:09:30.704Z,16.04
2022-09-01T04:12:00.342Z,16.03
2022-09-01T04:14:29.870Z,16.00
2022-09-01T04:17:16.137Z,15.97
2022-09-01T04:19:44.522Z,15.89
2022-09-01T04:22:14.376Z,15.90
2022-09-01T04:24:46.925Z,15.86
2022-09-01T04:27:22.012Z,15.88
2022-09-01T04:29:50.351Z,15.86
2022-09-01T04:32:21.788Z,15.82
2022-09-01T04:34:54.201Z,15.78
2022-09-01T04:37:23.772Z,15.75
2022-09-01T04:39:57.499Z,15.77
2022-09-01T04:42:32.708Z,15.82
2022-09-01T04:45:11.281Z,15.81
2022-09-01T04:47:45.560Z,15.73
2022-09-01T04:50:18.277Z,15.74
2022-09-01T04:53:07.154Z,15.68
2022-09-01T04:55:53.715Z,15.60
2022-09-01T04:58:24.888Z,15.66
2022-09-01T05:00:56.002Z,15.61
2022-09-01T05:03:25.283Z,15.61
2022-09-01T05:06:15.557Z,15.61
2022-09-01T05:08:48.393Z,15.60
2022-09-01T05:11:27.948Z,15.61
2022-09-01T05:14:07.074Z,15.56
2022-09-01T05:16:37.860Z,15.49
2022-09-01T05:19:06.516Z,15.48
2022-09-01T05:21:40.243Z,15.44
2022-09-01T05:24:09.105Z,15.44
2022-09-01T05:26:38.552Z,15.47
2022-09-01T05:29:13.403Z,15.44
2022-09-01T05:31:44.582Z,15.42
2022-09-01T05:34:14.521Z,15.42
2022-09-01T05:36:46.300Z,15.47
2022-09-01T05:39:14.975Z,15.48
2022-09-01T05:41:45.914Z,15.48
2022-09-01T05:44:17.241Z,15.52
2022-09-01T05:46:47.579Z,15.56
2022-09-01T05:49:18.913Z,15.58
2022-09-01T05:51:52.512Z,15.67
2022-09-01T05:54:27.494Z,15.62
2022-09-01T05:57:12.758Z,15.68
2022-09-01T05:59:53.942Z,15.66
2022-09-01T06:02:27.674Z,15.75
2022-09-01T06:05:00.383Z,15.86
2022-09-01T06:07:33.940Z,15.87
2022-09-01T06:10:03.539Z,15.92
2022-09-01T06:12:32.155Z,15.98
2022-09-01T06:15:02.083Z,16.02
2022-09-01T06:17:31.933Z,16.11
2022-09-01T06:20:10.730Z,16.18
2022-09-01T06:22:42.099Z,16.25
2022-09-01T06:25:11.549Z,16.26
2022-09-01T06:27:44.959Z,16.35
2022-09-01T06:30:23.880Z,16.43
2022-09-01T06:33:11.045Z,16.51
2022-09-01T06:35:43.955Z,16.57
2022-09-01T06:38:17.976Z,16.67
2022-09-01T06:40:49.138Z,16.70
2022-09-01T06:43:20.584Z,16.69
2022-09-01T06:45:55.049Z,16.71
2022-09-01T06:48:25.833Z,16.85
2022-09-01T06:51:21.082Z,16.96
2022-09-01T06:53:59.512Z,17.09
2022-09-01T06:56:34.089Z,17.10
2022-09-01T06:59:10.289Z,17.17
2022-09-01T07:01:41.507Z,17.28
2022-09-01T07:04:13.867Z,17.37
2022-09-01T07:06:59.664Z,17.50
2022-09-01T07:10:05.838Z,17.60
2022-09-01T07:13:04.812Z,17.70
2022-09-01T07:18:28.487Z,17.89
2022-09-01T07:24:06.063Z,18.22
2022-09-01T07:29:26.458Z,18.42
2022-09-01T07:34:47.591Z,18.58
2022-09-01T07:43:08.330Z,18.80
2022-09-01T07:46:00.465Z,18.85
2022-09-01T07:49:02.700Z,18.94
2022-09-01T07:51:38.577Z,19.06
2022-09-01T07:54:08.747Z,19.09
2022-09-01T07:56:40.241Z,19.27
2022-09-01T07:59:15.011Z,19.33
2022-09-01T08:02:10.362Z,19.36
2022-09-01T08:04:40.160Z,19.37
2022-09-01T08:07:16.058Z,19.52
2022-09-01T08:09:45.298Z,19.68
2022-09-01T08:12:15.633Z,19.83
2022-09-01T08:15:12.748Z,19.74
2022-09-01T08:17:57.306Z,19.97
2022-09-01T08:20:28.375Z,19.98
2022-09-01T08:23:20.753Z,20.02
2022-09-01T08:25:50.675Z,20.29
2022-09-01T08:28:26.581Z,20.51
2022-09-01T08:30:56.353Z,20.59
2022-09-01T08:33:26.478Z,20.62
2022-09-01T08:35:57.138Z,20.89
2022-09-01T08:38:28.968Z,20.90
2022-09-01T08:41:00.130Z,20.91
2022-09-01T08:43:45.269Z,21.09
2022-09-01T08:46:19.718Z,21.14
2022-09-01T08:52:09.160Z,21.30
2022-09-01T08:54:45.575Z,21.55
2022-09-01T08:57:20.255Z,21.57
2022-09-01T09:00:29.573Z,21.78
2022-09-01T09:03:18.200Z,21.90
2022-09-01T09:06:02.997Z,22.05
2022-09-01T09:08:46.744Z,22.31
2022-09-01T09:11:34.745Z,22.29
2022-09-01T09:14:12.415Z,22.47
2022-09-01T09:16:43.817Z,22.61
2022-09-01T09:19:19.217Z,22.63
2022-09-01T09:21:49.409Z,22.82
2022-09-01T09:24:28.047Z,22.91
2022-09-01T09:27:07.089Z,23.02
2022-09-01T09:29:38.155Z,23.31
2022-09-01T09:32:22.433Z,23.41
2022-09-01T09:34:51.790Z,23.11
2022-09-01T09:37:29.467Z,22.88
2022-09-01T09:40:15.057Z,23.24
2022-09-01T09:43:03.124Z,23.36
2022-09-01T09:45:34.553Z,23.60
2022-09-01T09:48:07.861Z,23.47
2022-09-01T09:50:42.091Z,23.41
2022-09-01T09:53:19.604Z,23.62
2022-09-01T09:56:00.835Z,23.68
2022-09-01T09:58:37.290Z,23.90
2022-09-01T10:01:17.663Z,24.46
2022-09-01T10:03:49.090Z,24.18
2022-09-01T10:06:32.877Z,24.14
2022-09-01T10:09:02.478Z,24.34
2022-09-01T10:11:41.292Z,24.51
2022-09-01T10:14:47.633Z,24.38
2022-09-01T10:17:13.346Z,24.34
2022-09-01T10:19:49.344Z,24.66
2022-09-01T10:22:17.817Z,24.89
2022-09-01T10:24:50.101Z,24.75
2022-09-01T10:27:23.054Z,24.82
2022-09-01T10:30:14.199Z,25.28
2022-09-01T10:32:55.003Z,25.31
2022-09-01T10:35:28.276Z,25.17
2022-09-01T10:38:00.006Z,25.45
2022-09-01T10:40:43.840Z,25.28
2022-09-01T10:43:37.820Z,25.24
2022-09-01T10:46:48.834Z,25.34
2022-09-01T10:49:52.729Z,25.37
2022-09-01T10:52:56.060Z,25.36
2022-09-01T10:55:27.105Z,25.48
2022-09-01T10:58:09.271Z,25.84
2022-09-01T11:04:02.689Z,25.84
2022-09-01T11:07:14.671Z,26.25
2022-09-01T11:09:44.851Z,26.15
2022-09-01T11:12:37.039Z,25.95
2022-09-01T11:15:08.581Z,26.18
2022-09-01T11:17:39.498Z,26.35
2022-09-01T11:20:13.654Z,26.47
2022-09-01T11:22:43.818Z,26.23
2022-09-01T11:25:40.656Z,26.22
2022-09-01T11:28:12.186Z,26.43
2022-09-01T11:30:51.978Z,26.42
2022-09-01T11:33:32.450Z,26.96
2022-09-01T11:36:05.563Z,27.16
2022-09-01T11:38:45.004Z,27.10
2022-09-01T11:41:34.138Z,27.08
2022-09-01T11:44:04.899Z,27.17
2022-09-01T11:46:35.749Z,26.87
2022-09-01T11:49:08.433Z,26.87
2022-09-01T11:51:47.308Z,27.11
2022-09-01T11:54:17.131Z,26.95
2022-09-01T11:56:45.529Z,27.39
2022-09-01T11:59:13.807Z,27.14
2022-09-01T12:01:42.476Z,26.86
2022-09-01T12:04:27.544Z,26.31
2022-09-01T12:07:02.304Z,26.02
2022-09-01T12:09:39.765Z,25.54
2022-09-01T12:12:29.592Z,25.52
2022-09-01T12:15:06.216Z,26.06
2022-09-01T12:17:35.568Z,26.60
2022-09-01T12:20:31.033Z,26.84
2022-09-01T12:23:02.339Z,27.15
2022-09-01T12:25:33.050Z,27.01
2022-09-01T12:28:02.106Z,26.98
2022-09-01T12:30:35.355Z,27.42
2022-09-01T12:33:23.462Z,27.78
2022-09-01T12:35:56.079Z,27.96
2022-09-01T12:38:31.052Z,27.04
2022-09-01T12:40:59.991Z,26.32
2022-09-01T12:43:33.749Z,25.74
2022-09-01T12:46:04.852Z,26.72
2022-09-01T12:48:35.339Z,27.36
2022-09-01T12:51:09.399Z,27.59
2022-09-01T12:53:38.152Z,27.44
2022-09-01T12:56:19.016Z,27.79
2022-09-01T12:58:53.994Z,27.81
2022-09-01T13:01:29.948Z,27.86
2022-09-01T13:04:12.456Z,27.45
2022-09-01T13:06:41.867Z,26.87
2022-09-01T13:09:10.382Z,26.28
2022-09-01T13:14:27.635Z,27.51
2022-09-01T13:16:57.899Z,28.30
2022-09-01T13:19:30.205Z,28.27
2022-09-01T13:21:59.454Z,27.83
2022-09-01T13:24:31.432Z,27.74
2022-09-01T13:29:49.442Z,26.84
2022-09-01T13:32:21.593Z,26.41
2022-09-01T13:34:52.720Z,25.88
2022-09-01T13:37:22.533Z,25.57
2022-09-01T13:39:51.269Z,26.80
2022-09-01T13:42:20.190Z,27.66
2022-09-01T13:44:52.565Z,27.55
2022-09-01T13:47:29.806Z,27.56
2022-09-01T13:50:08.219Z,27.74
2022-09-01T13:52:37.841Z,28.00
2022-09-01T13:55:08.467Z,28.06
2022-09-01T13:57:37.145Z,28.21
2022-09-01T14:00:10.847Z,27.82
2022-09-01T14:02:42.262Z,28.06
2022-09-01T14:05:11.400Z,28.27
2022-09-01T14:07:39.698Z,28.61
2022-09-01T14:10:09.148Z,28.74
2022-09-01T14:12:37.582Z,28.43
2022-09-01T14:15:12.324Z,28.47
2022-09-01T14:17:45.039Z,28.40
2022-09-01T14:20:16.297Z,29.30
2022-09-01T14:22:45.402Z,29.00
2022-09-01T14:25:14.650Z,29.00
2022-09-01T14:27:44.640Z,27.37
2022-09-01T14:30:16.492Z,27.36
2022-09-01T14:32:46.923Z,28.74
2022-09-01T14:35:16.705Z,29.35
2022-09-01T14:37:45.670Z,29.00
2022-09-01T14:40:16.959Z,29.41
2022-09-01T14:42:49.449Z,28.50
2022-09-01T14:45:19.626Z,26.98
2022-09-01T14:47:50.917Z,26.50
2022-09-01T14:50:22.935Z,27.61
2022-09-01T14:52:54.459Z,28.38
2022-09-01T14:55:24.063Z,28.71
2022-09-01T14:57:53.030Z,28.80
2022-09-01T15:00:22.135Z,29.09
2022-09-01T15:02:52.093Z,29.45
2022-09-01T15:05:20.624Z,29.56
2022-09-01T15:07:49.029Z,29.94
2022-09-01T15:10:24.816Z,29.78
2022-09-01T15:12:55.490Z,29.64
2022-09-01T15:15:24.500Z,30.09
2022-09-01T15:17:54.845Z,30.12
2022-09-01T15:20:41.548Z,29.98
2022-09-01T15:23:11.438Z,31.08
2022-09-01T15:25:39.914Z,30.71
2022-09-01T15:28:08.298Z,30.22
2022-09-01T15:30:37.072Z,30.31
2022-09-01T15:33:10.882Z,28.85
2022-09-01T15:35:43.136Z,27.56
2022-09-01T15:38:13.441Z,26.61
2022-09-01T15:40:45.720Z,26.34
2022-09-01T15:43:23.766Z,26.30
2022-09-01T15:45:52.147Z,26.61
2022-09-01T15:48:21.995Z,26.66
2022-09-01T15:50:50.788Z,26.70
2022-09-01T15:53:19.318Z,26.61
2022-09-01T15:55:49.679Z,27.52
2022-09-01T15:58:20.253Z,28.16
2022-09-01T16:00:48.762Z,27.49
2022-09-01T16:03:17.130Z,26.52
2022-09-01T16:05:47.151Z,26.07
2022-09-01T16:08:15.606Z,25.88
2022-09-01T16:10:44.067Z,25.67
2022-09-01T16:13:13.159Z,25.77
2022-09-01T16:15:47.596Z,26.83
2022-09-01T16:18:33.711Z,26.98
2022-09-01T16:21:12.615Z,27.15
2022-09-01T16:23:45.099Z,26.99
2022-09-01T16:26:13.472Z,26.77
2022-09-01T16:28:46.190Z,27.23
2022-09-01T16:31:20.959Z,26.76
2022-09-01T16:33:52.252Z,26.69
2022-09-01T16:36:34.757Z,27.12
2022-09-01T16:39:14.391Z,27.71
2022-09-01T16:41:57.161Z,28.05
2022-09-01T16:44:38.561Z,29.03
2022-09-01T16:47:21.498Z,29.34
2022-09-01T16:49:56.827Z,29.54
2022-09-01T16:52:30.190Z,29.06
2022-09-01T16:55:16.652Z,28.77
2022-09-01T16:57:59.419Z,27.60
2022-09-01T17:00:41.610Z,26.53
2022-09-01T17:03:19.328Z,25.72
2022-09-01T17:05:56.220Z,25.36
2022-09-01T17:08:31.172Z,24.82
2022-09-01T17:11:07.568Z,24.50
2022-09-01T17:13:40.207Z,24.50
2022-09-01T17:16:12.318Z,24.46
2022-09-01T17:18:44.446Z,24.38
2022-09-01T17:21:18.016Z,24.15
2022-09-01T17:23:56.335Z,24.13
2022-09-01T17:26:27.399Z,24.11
2022-09-01T17:29:00.018Z,24.02
2022-09-01T17:31:52.170Z,23.97
2022-09-01T17:34:33.979Z,23.85
2022-09-01T17:37:15.020Z,23.80
2022-09-01T17:39:55.891Z,23.65
2022-09-01T17:42:32.713Z,23.59
2022-09-01T17:45:13.081Z,23.53
2022-09-01T17:47:53.414Z,23.41
2022-09-01T17:50:26.329Z,23.32
2022-09-01T17:53:10.026Z,23.28
2022-09-01T17:55:50.330Z,23.18
2022-09-01T17:58:32.467Z,23.16
2022-09-01T18:01:05.741Z,23.10
2022-09-01T18:03:47.569Z,22.99
2022-09-01T18:06:24.029Z,22.85
2022-09-01T18:08:57.036Z,22.79
2022-09-01T18:11:35.818Z,22.66
2022-09-01T18:14:09.853Z,22.62
2022-09-01T18:16:48.506Z,22.51
2022-09-01T18:19:20.672Z,22.33
2022-09-01T18:21:53.201Z,22.21
2022-09-01T18:24:26.328Z,22.12
2022-09-01T18:26:56.071Z,22.01
2022-09-01T18:29:29.811Z,21.98
2022-09-01T18:32:17.998Z,21.89
2022-09-01T18:35:13.417Z,21.84
2022-09-01T18:37:55.403Z,21.82
2022-09-01T18:40:31.935Z,21.67
2022-09-01T18:43:14.382Z,21.52
2022-09-01T18:45:49.460Z,21.50
2022-09-01T18:48:26.539Z,21.49
2022-09-01T18:50:59.261Z,21.45
2022-09-01T18:53:36.031Z,21.36
2022-09-01T18:56:13.890Z,21.30
2022-09-01T18:58:54.265Z,21.22
2022-09-01T19:01:33.570Z,21.15
2022-09-01T19:04:14.153Z,21.03
2022-09-01T19:06:53.556Z,20.99
2022-09-01T19:09:29.156Z,20.95
2022-09-01T19:12:10.580Z,20.84
2022-09-01T19:14:49.804Z,20.72
2022-09-01T19:17:35.549Z,20.58
2022-09-01T19:20:10.828Z,20.53
2022-09-01T19:22:46.286Z,20.45
2022-09-01T19:25:36.402Z,20.45
2022-09-01T19:28:12.677Z,20.41
2022-09-01T19:30:50.111Z,20.37
2022-09-01T19:33:24.460Z,20.31
2022-09-01T19:35:57.184Z,20.21
2022-09-01T19:38:29.103Z,20.20
2022-09-01T19:41:07.863Z,20.24
2022-09-01T19:43:42.919Z,20.21
2022-09-01T19:46:22.405Z,20.15
2022-09-01T19:48:58.272Z,20.15
2022-09-01T19:51:30.965Z,20.07
2022-09-01T19:54:04.717Z,20.05
2022-09-01T19:56:39.910Z,19.98
2022-09-01T19:59:19.907Z,19.94
2022-09-01T20:01:59.337Z,19.87
2022-09-01T20:04:38.405Z,19.83
2022-09-01T20:07:11.533Z,19.75
2022-09-01T20:09:47.185Z,19.77
2022-09-01T20:12:23.576Z,19.72
2022-09-01T20:15:07.950Z,19.65
2022-09-01T20:17:43.938Z,19.56
2022-09-01T20:20:14.890Z,19.58
2022-09-01T20:22:53.817Z,19.61
2022-09-01T20:25:27.294Z,19.58
2022-09-01T20:28:01.112Z,19.50
2022-09-01T20:30:37.140Z,19.45
2022-09-01T20:33:16.132Z,19.40
2022-09-01T20:35:48.388Z,19.39
2022-09-01T20:38:39.546Z,19.41
2022-09-01T20:41:18.120Z,19.36
2022-09-01T20:43:51.410Z,19.36
2022-09-01T20:46:21.058Z,19.36
2022-09-01T20:48:51.488Z,19.26
2022-09-01T20:51:27.626Z,19.13
2022-09-01T20:54:18.212Z,18.98
2022-09-01T20:56:53.170Z,18.86
2022-09-01T20:59:30.791Z,18.77
2022-09-01T21:02:11.289Z,18.68
2022-09-01T21:04:51.128Z,18.69
2022-09-01T21:07:21.797Z,18.63
2022-09-01T21:09:59.750Z,18.67
2022-09-01T21:12:36.479Z,18.70
2022-09-01T21:15:16.905Z,18.78
2022-09-01T21:17:55.321Z,18.76
2022-09-01T21:20:32.726Z,18.67
2022-09-01T21:23:02.152Z,18.65
2022-09-01T21:25:37.625Z,18.66
2022-09-01T21:28:08.281Z,18.64
2022-09-01T21:30:37.353Z,18.72
2022-09-01T21:33:06.276Z,18.69
2022-09-01T21:35:35.917Z,18.64
2022-09-01T21:38:04.254Z,18.64
2022-09-01T21:40:32.683Z,18.66
2022-09-01T21:43:03.934Z,18.73
2022-09-01T21:45:33.832Z,18.76
2022-09-01T21:48:03.252Z,18.73
2022-09-01T21:50:31.824Z,18.79
2022-09-01T21:53:01.778Z,18.80
2022-09-01T21:55:30.909Z,18.85
2022-09-01T21:58:00.531Z,18.84
2022-09-01T22:00:31.288Z,18.82
2022-09-01T22:03:01.853Z,18.86
2022-09-01T22:05:31.172Z,18.89
2022-09-01T22:08:01.582Z,18.91
2022-09-01T22:10:31.656Z,18.92
2022-09-01T22:13:03.513Z,18.95
2022-09-01T22:15:32.716Z,18.96
2022-09-01T22:18:06.014Z,18.91
2022-09-01T22:20:35.210Z,18.86
2022-09-01T22:23:05.131Z,18.81
2022-09-01T22:25:35.604Z,18.74
2022-09-01T22:28:06.505Z,18.76
2022-09-01T22:30:36.080Z,18.77
2022-09-01T22:33:07.848Z,18.72
2022-09-01T22:35:40.596Z,18.69
2022-09-01T22:38:11.526Z,18.69
2022-09-01T22:40:45.091Z,18.72
2022-09-01T22:43:17.065Z,18.69
2022-09-01T22:45:46.464Z,18.66
2022-09-01T22:48:15.420Z,18.62
2022-09-01T22:50:45.137Z,18.55
2022-09-01T22:53:15.540Z,18.57
2022-09-01T22:55:48.119Z,18.61
2022-09-01T22:58:17.632Z,18.54
2022-09-01T23:00:49.901Z,18.54
2022-09-01T23:03:20.592Z,18.56
2022-09-01T23:05:50.192Z,18.52
2022-09-01T23:08:19.867Z,18.52
2022-09-01T23:10:48.133Z,18.57
2022-09-01T23:13:17.308Z,18.64
2022-09-01T23:15:45.659Z,18.69
2022-09-01T23:18:14.153Z,18.67
2022-09-01T23:20:42.445Z,18.63
2022-09-01T23:23:10.776Z,18.58
2022-09-01T23:25:43.675Z,18.54
2022-09-01T23:28:14.386Z,18.54
2022-09-01T23:30:42.875Z,18.47
2022-09-01T23:33:11.134Z,18.49
2022-09-01T23:35:42.991Z,18.52
2022-09-01T23:38:11.790Z,18.41
2022-09-01T23:40:43.183Z,18.36
2022-09-01T23:43:11.689Z,18.32
2022-09-01T23:45:41.044Z,18.36
2022-09-01T23:48:09.804Z,18.28
2022-09-01T23:50:44.120Z,18.21
2022-09-01T23:53:12.528Z,18.20
2022-09-01T23:55:45.386Z,18.12
2022-09-01T23:58:14.228Z,18.03
